sensor_id;sensor_type;location;lat;lon;timestamp;pressure;altitude;pressure_sealevel;temperature;humidity
49759;BME280;35654;46.080;11.118;2023-01-27T00:00:37;99036.28;;;1.27;81.42
49759;BME280;35654;46.080;11.118;2023-01-27T00:03:04;99033.56;;;1.10;81.81
49759;BME280;35654;46.080;11.118;2023-01-27T00:05:31;99033.94;;;1.02;82.95
49759;BME280;35654;46.080;11.118;2023-01-27T00:07:58;99031.69;;;1.10;82.90
49759;BME280;35654;46.080;11.118;2023-01-27T00:10:25;99026.16;;;1.17;82.52
49759;BME280;35654;46.080;11.118;2023-01-27T00:12:51;99028.16;;;1.10;82.50
49759;BME280;35654;46.080;11.118;2023-01-27T00:15:36;99030.09;;;0.98;82.68
49759;BME280;35654;46.080;11.118;2023-01-27T00:18:02;99028.94;;;0.94;83.61
49759;BME280;35654;46.080;11.118;2023-01-27T00:20:29;99028.22;;;0.98;82.98
49759;BME280;35654;46.080;11.118;2023-01-27T00:23:19;99039.09;;;1.03;82.70
49759;BME280;35654;46.080;11.118;2023-01-27T00:26:06;99032.91;;;1.03;83.72
49759;BME280;35654;46.080;11.118;2023-01-27T00:28:35;99037.59;;;0.96;83.55
49759;BME280;35654;46.080;11.118;2023-01-27T00:31:04;99033.66;;;0.87;84.46
49759;BME280;35654;46.080;11.118;2023-01-27T00:33:31;99029.34;;;0.86;84.57
49759;BME280;35654;46.080;11.118;2023-01-27T00:36:02;99020.78;;;0.89;83.99
49759;BME280;35654;46.080;11.118;2023-01-27T00:38:30;99019.38;;;0.86;84.25
49759;BME280;35654;46.080;11.118;2023-01-27T00:40:58;99022.31;;;0.85;84.03
49759;BME280;35654;46.080;11.118;2023-01-27T00:43:43;99018.78;;;0.84;84.30
49759;BME280;35654;46.080;11.118;2023-01-27T00:46:09;99022.78;;;0.82;84.67
49759;BME280;35654;46.080;11.118;2023-01-27T00:48:36;99019.88;;;0.83;83.77
49759;BME280;35654;46.080;11.118;2023-01-27T00:51:03;99020.34;;;0.80;84.06
49759;BME280;35654;46.080;11.118;2023-01-27T00:53:29;99010.59;;;0.79;83.88
49759;BME280;35654;46.080;11.118;2023-01-27T00:55:57;99003.81;;;0.77;83.41
49759;BME280;35654;46.080;11.118;2023-01-27T00:58:27;99013.78;;;0.76;83.52
49759;BME280;35654;46.080;11.118;2023-01-27T01:00:55;99015.44;;;0.77;83.38
49759;BME280;35654;46.080;11.118;2023-01-27T01:03:22;99013.66;;;0.83;83.00
49759;BME280;35654;46.080;11.118;2023-01-27T01:05:49;99012.69;;;0.89;82.60
49759;BME280;35654;46.080;11.118;2023-01-27T01:08:15;99022.25;;;0.96;81.57
49759;BME280;35654;46.080;11.118;2023-01-27T01:10:42;99018.25;;;0.99;81.38
49759;BME280;35654;46.080;11.118;2023-01-27T01:13:09;99019.72;;;1.06;81.47
49759;BME280;35654;46.080;11.118;2023-01-27T01:15:40;99022.78;;;1.10;80.88
49759;BME280;35654;46.080;11.118;2023-01-27T01:18:09;99028.16;;;1.10;80.77
49759;BME280;35654;46.080;11.118;2023-01-27T01:20:38;99019.59;;;1.13;80.40
49759;BME280;35654;46.080;11.118;2023-01-27T01:23:06;99020.34;;;1.08;80.59
49759;BME280;35654;46.080;11.118;2023-01-27T01:25:33;99019.91;;;1.00;80.21
49759;BME280;35654;46.080;11.118;2023-01-27T01:28:01;99013.59;;;0.94;80.79
49759;BME280;35654;46.080;11.118;2023-01-27T01:30:29;99016.47;;;1.04;79.98
49759;BME280;35654;46.080;11.118;2023-01-27T01:32:56;99019.25;;;1.09;79.28
49759;BME280;35654;46.080;11.118;2023-01-27T01:35:23;99024.66;;;1.09;79.09
49759;BME280;35654;46.080;11.118;2023-01-27T01:37:53;99023.75;;;1.04;78.34
49759;BME280;35654;46.080;11.118;2023-01-27T01:40:21;99020.94;;;0.99;78.38
49759;BME280;35654;46.080;11.118;2023-01-27T01:42:59;99034.78;;;1.02;78.29
49759;BME280;35654;46.080;11.118;2023-01-27T01:47:59;99027.25;;;1.04;78.09
49759;BME280;35654;46.080;11.118;2023-01-27T01:50:27;99027.09;;;0.94;79.23
49759;BME280;35654;46.080;11.118;2023-01-27T01:52:53;99028.91;;;0.77;80.09
49759;BME280;35654;46.080;11.118;2023-01-27T01:55:23;99029.56;;;0.84;80.04
49759;BME280;35654;46.080;11.118;2023-01-27T01:57:50;99028.59;;;0.90;80.25
49759;BME280;35654;46.080;11.118;2023-01-27T02:00:17;99019.00;;;0.94;80.01
49759;BME280;35654;46.080;11.118;2023-01-27T02:02:44;99023.09;;;0.97;80.31
49759;BME280;35654;46.080;11.118;2023-01-27T02:05:28;99021.28;;;1.02;80.45
49759;BME280;35654;46.080;11.118;2023-01-27T02:07:59;99023.44;;;1.00;80.28
49759;BME280;35654;46.080;11.118;2023-01-27T02:10:28;99019.16;;;1.04;79.92
49759;BME280;35654;46.080;11.118;2023-01-27T02:12:55;99016.47;;;1.04;79.08
49759;BME280;35654;46.080;11.118;2023-01-27T02:15:21;99017.69;;;0.97;79.19
49759;BME280;35654;46.080;11.118;2023-01-27T02:17:48;99014.91;;;0.92;79.54
49759;BME280;35654;46.080;11.118;2023-01-27T02:26:32;99016.47;;;1.04;78.14
49759;BME280;35654;46.080;11.118;2023-01-27T02:29:05;99022.91;;;1.03;77.88
49759;BME280;35654;46.080;11.118;2023-01-27T02:31:32;99020.13;;;0.98;78.05
49759;BME280;35654;46.080;11.118;2023-01-27T02:34:07;99025.91;;;0.90;78.00
49759;BME280;35654;46.080;11.118;2023-01-27T02:36:41;99023.25;;;0.79;78.16
49759;BME280;35654;46.080;11.118;2023-01-27T02:39:12;99023.06;;;0.69;78.13
49759;BME280;35654;46.080;11.118;2023-01-27T02:41:51;99021.78;;;0.71;78.44
49759;BME280;35654;46.080;11.118;2023-01-27T02:44:19;99023.28;;;0.67;79.10
49759;BME280;35654;46.080;11.118;2023-01-27T02:46:46;99023.56;;;0.66;79.00
49759;BME280;35654;46.080;11.118;2023-01-27T02:49:13;99021.34;;;0.63;79.42
49759;BME280;35654;46.080;11.118;2023-01-27T02:51:40;99018.28;;;0.59;79.12
49759;BME280;35654;46.080;11.118;2023-01-27T02:54:07;99014.56;;;0.48;79.14
49759;BME280;35654;46.080;11.118;2023-01-27T02:56:34;99011.78;;;0.43;79.47
49759;BME280;35654;46.080;11.118;2023-01-27T02:59:00;99020.81;;;0.37;79.89
49759;BME280;35654;46.080;11.118;2023-01-27T03:01:27;99013.31;;;0.39;79.42
49759;BME280;35654;46.080;11.118;2023-01-27T03:03:53;99009.38;;;0.30;80.12
49759;BME280;35654;46.080;11.118;2023-01-27T03:06:20;99016.13;;;0.44;79.67
49759;BME280;35654;46.080;11.118;2023-01-27T03:08:47;99022.09;;;0.46;79.37
49759;BME280;35654;46.080;11.118;2023-01-27T03:11:13;99023.47;;;0.49;78.93
49759;BME280;35654;46.080;11.118;2023-01-27T03:13:40;99021.13;;;0.52;78.69
49759;BME280;35654;46.080;11.118;2023-01-27T03:16:07;99024.16;;;0.56;78.49
49759;BME280;35654;46.080;11.118;2023-01-27T03:18:52;99020.66;;;0.55;78.51
49759;BME280;35654;46.080;11.118;2023-01-27T03:21:22;99019.84;;;0.55;78.34
49759;BME280;35654;46.080;11.118;2023-01-27T03:23:48;99020.06;;;0.53;78.37
49759;BME280;35654;46.080;11.118;2023-01-27T03:26:15;99019.75;;;0.50;77.93
49759;BME280;35654;46.080;11.118;2023-01-27T03:28:42;99016.91;;;0.45;77.87
49759;BME280;35654;46.080;11.118;2023-01-27T03:31:10;99027.59;;;0.40;77.86
49759;BME280;35654;46.080;11.118;2023-01-27T03:33:45;99023.59;;;0.42;77.67
49759;BME280;35654;46.080;11.118;2023-01-27T03:36:13;99019.78;;;0.38;77.51
49759;BME280;35654;46.080;11.118;2023-01-27T03:38:58;99012.63;;;0.32;77.54
49759;BME280;35654;46.080;11.118;2023-01-27T03:41:43;99019.22;;;0.25;78.35
49759;BME280;35654;46.080;11.118;2023-01-27T03:44:28;99013.94;;;0.30;77.92
49759;BME280;35654;46.080;11.118;2023-01-27T03:47:14;99012.50;;;0.39;77.13
49759;BME280;35654;46.080;11.118;2023-01-27T03:49:40;99011.31;;;0.46;76.64
49759;BME280;35654;46.080;11.118;2023-01-27T03:52:07;99011.88;;;0.48;76.58
49759;BME280;35654;46.080;11.118;2023-01-27T03:54:33;99013.75;;;0.48;76.38
49759;BME280;35654;46.080;11.118;2023-01-27T03:57:00;99019.63;;;0.45;76.67
49759;BME280;35654;46.080;11.118;2023-01-27T03:59:30;99008.28;;;0.43;76.32
49759;BME280;35654;46.080;11.118;2023-01-27T04:01:56;99016.34;;;0.43;76.73
49759;BME280;35654;46.080;11.118;2023-01-27T04:04:39;99019.28;;;0.41;77.01
49759;BME280;35654;46.080;11.118;2023-01-27T04:07:23;99022.94;;;0.35;77.24
49759;BME280;35654;46.080;11.118;2023-01-27T04:09:50;99017.66;;;0.29;76.99
49759;BME280;35654;46.080;11.118;2023-01-27T04:12:15;99014.78;;;0.19;77.63
49759;BME280;35654;46.080;11.118;2023-01-27T04:14:41;99009.03;;;0.15;77.43
49759;BME280;35654;46.080;11.118;2023-01-27T04:17:10;99015.81;;;0.18;77.38
49759;BME280;35654;46.080;11.118;2023-01-27T04:19:37;99015.00;;;0.17;77.60
49759;BME280;35654;46.080;11.118;2023-01-27T04:22:03;99021.44;;;0.16;77.55
49759;BME280;35654;46.080;11.118;2023-01-27T04:24:29;99027.06;;;0.15;78.09
49759;BME280;35654;46.080;11.118;2023-01-27T04:27:00;99021.19;;;0.18;77.73
49759;BME280;35654;46.080;11.118;2023-01-27T04:29:31;99023.88;;;0.18;78.11
49759;BME280;35654;46.080;11.118;2023-01-27T04:31:58;99028.34;;;0.12;77.76
49759;BME280;35654;46.080;11.118;2023-01-27T04:34:26;99025.81;;;0.06;78.04
49759;BME280;35654;46.080;11.118;2023-01-27T04:36:53;99033.03;;;0.05;77.87
49759;BME280;35654;46.080;11.118;2023-01-27T04:39:20;99034.66;;;-0.06;78.08
49759;BME280;35654;46.080;11.118;2023-01-27T04:41:46;99039.25;;;0.06;78.11
49759;BME280;35654;46.080;11.118;2023-01-27T04:44:14;99026.00;;;0.16;78.08
49759;BME280;35654;46.080;11.118;2023-01-27T04:46:41;99027.75;;;0.22;77.59
49759;BME280;35654;46.080;11.118;2023-01-27T04:49:08;99030.47;;;0.22;77.65
49759;BME280;35654;46.080;11.118;2023-01-27T04:51:34;99031.84;;;0.24;77.25
49759;BME280;35654;46.080;11.118;2023-01-27T04:54:01;99030.78;;;0.25;76.62
49759;BME280;35654;46.080;11.118;2023-01-27T04:59:05;99031.59;;;0.26;76.68
49759;BME280;35654;46.080;11.118;2023-01-27T05:01:33;99034.06;;;0.27;76.92
49759;BME280;35654;46.080;11.118;2023-01-27T05:03:59;99033.94;;;0.34;76.63
49759;BME280;35654;46.080;11.118;2023-01-27T05:06:26;99044.56;;;0.40;75.61
49759;BME280;35654;46.080;11.118;2023-01-27T05:08:52;99037.31;;;0.41;75.62
49759;BME280;35654;46.080;11.118;2023-01-27T05:11:20;99041.16;;;0.45;75.40
49759;BME280;35654;46.080;11.118;2023-01-27T05:13:47;99037.69;;;0.44;74.98
49759;BME280;35654;46.080;11.118;2023-01-27T05:18:40;99045.75;;;0.44;75.18
49759;BME280;35654;46.080;11.118;2023-01-27T05:21:10;99049.88;;;0.35;75.04
49759;BME280;35654;46.080;11.118;2023-01-27T05:23:38;99051.47;;;0.36;75.37
49759;BME280;35654;46.080;11.118;2023-01-27T05:26:12;99066.13;;;0.29;75.49
49759;BME280;35654;46.080;11.118;2023-01-27T05:28:42;99056.09;;;0.24;75.78
49759;BME280;35654;46.080;11.118;2023-01-27T05:31:20;99044.25;;;0.25;75.83
49759;BME280;35654;46.080;11.118;2023-01-27T05:33:49;99064.06;;;0.19;75.72
49759;BME280;35654;46.080;11.118;2023-01-27T05:36:18;99065.56;;;0.15;76.01
49759;BME280;35654;46.080;11.118;2023-01-27T05:38:46;99072.13;;;0.19;76.31
49759;BME280;35654;46.080;11.118;2023-01-27T05:41:14;99074.69;;;0.14;75.70
49759;BME280;35654;46.080;11.118;2023-01-27T05:43:42;99073.44;;;0.05;75.56
49759;BME280;35654;46.080;11.118;2023-01-27T05:46:16;99072.97;;;0.08;75.80
49759;BME280;35654;46.080;11.118;2023-01-27T05:48:48;99072.81;;;0.15;75.45
49759;BME280;35654;46.080;11.118;2023-01-27T05:51:17;99080.06;;;0.14;75.48
49759;BME280;35654;46.080;11.118;2023-01-27T05:53:43;99079.38;;;0.19;75.22
49759;BME280;35654;46.080;11.118;2023-01-27T05:56:10;99084.41;;;0.15;75.81
49759;BME280;35654;46.080;11.118;2023-01-27T05:58:38;99077.38;;;0.14;75.56
49759;BME280;35654;46.080;11.118;2023-01-27T06:01:18;99077.63;;;0.01;75.25
49759;BME280;35654;46.080;11.118;2023-01-27T06:03:46;99081.25;;;-0.05;76.15
49759;BME280;35654;46.080;11.118;2023-01-27T06:06:13;99087.81;;;-0.13;77.28
49759;BME280;35654;46.080;11.118;2023-01-27T06:08:40;99090.84;;;-0.21;76.76
49759;BME280;35654;46.080;11.118;2023-01-27T06:11:07;99091.53;;;-0.25;77.14
49759;BME280;35654;46.080;11.118;2023-01-27T06:13:34;99091.72;;;-0.38;77.80
49759;BME280;35654;46.080;11.118;2023-01-27T06:16:02;99100.25;;;-0.41;77.47
49759;BME280;35654;46.080;11.118;2023-01-27T06:18:28;99097.81;;;-0.43;77.41
49759;BME280;35654;46.080;11.118;2023-01-27T06:20:59;99116.53;;;-0.48;77.69
49759;BME280;35654;46.080;11.118;2023-01-27T06:23:26;99113.00;;;-0.48;77.87
49759;BME280;35654;46.080;11.118;2023-01-27T06:25:54;99121.66;;;-0.46;78.12
49759;BME280;35654;46.080;11.118;2023-01-27T06:28:22;99123.66;;;-0.42;78.24
49759;BME280;35654;46.080;11.118;2023-01-27T06:30:48;99116.56;;;-0.36;77.83
49759;BME280;35654;46.080;11.118;2023-01-27T06:33:16;99118.50;;;-0.43;76.94
49759;BME280;35654;46.080;11.118;2023-01-27T06:35:42;99130.09;;;-0.43;77.47
49759;BME280;35654;46.080;11.118;2023-01-27T06:38:11;99132.09;;;-0.38;77.75
49759;BME280;35654;46.080;11.118;2023-01-27T06:40:38;99129.41;;;-0.38;77.16
49759;BME280;35654;46.080;11.118;2023-01-27T06:43:10;99129.75;;;-0.35;77.04
49759;BME280;35654;46.080;11.118;2023-01-27T06:45:38;99126.94;;;-0.40;76.76
49759;BME280;35654;46.080;11.118;2023-01-27T06:48:04;99138.50;;;-0.51;76.91
49759;BME280;35654;46.080;11.118;2023-01-27T06:50:35;99145.50;;;-0.50;77.29
49759;BME280;35654;46.080;11.118;2023-01-27T06:53:04;99143.63;;;-0.49;76.78
49759;BME280;35654;46.080;11.118;2023-01-27T06:55:31;99140.13;;;-0.50;76.95
49759;BME280;35654;46.080;11.118;2023-01-27T06:57:58;99139.78;;;-0.53;76.77
49759;BME280;35654;46.080;11.118;2023-01-27T07:00:26;99156.03;;;-0.48;76.79
49759;BME280;35654;46.080;11.118;2023-01-27T07:02:55;99149.59;;;-0.47;76.37
49759;BME280;35654;46.080;11.118;2023-01-27T07:05:22;99152.44;;;-0.42;76.42
49759;BME280;35654;46.080;11.118;2023-01-27T07:07:49;99152.09;;;-0.34;75.97
49759;BME280;35654;46.080;11.118;2023-01-27T07:10:15;99150.31;;;0.13;82.16
49759;BME280;35654;46.080;11.118;2023-01-27T07:12:42;99157.09;;;0.15;77.39
49759;BME280;35654;46.080;11.118;2023-01-27T07:15:09;99154.28;;;0.10;74.35
49759;BME280;35654;46.080;11.118;2023-01-27T07:17:36;99157.09;;;0.15;74.07
49759;BME280;35654;46.080;11.118;2023-01-27T07:20:03;99164.47;;;0.43;75.65
49759;BME280;35654;46.080;11.118;2023-01-27T07:22:29;99162.72;;;0.48;72.95
49759;BME280;35654;46.080;11.118;2023-01-27T07:24:55;99169.88;;;0.66;75.90
49759;BME280;35654;46.080;11.118;2023-01-27T07:27:21;99164.97;;;1.71;76.88
49759;BME280;35654;46.080;11.118;2023-01-27T07:29:48;99167.97;;;1.58;69.01
49759;BME280;35654;46.080;11.118;2023-01-27T07:32:14;99163.69;;;1.17;68.62
49759;BME280;35654;46.080;11.118;2023-01-27T07:34:41;99170.63;;;0.90;68.70
49759;BME280;35654;46.080;11.118;2023-01-27T07:37:08;99173.59;;;0.65;69.52
49759;BME280;35654;46.080;11.118;2023-01-27T07:39:37;99169.97;;;0.36;70.17
49759;BME280;35654;46.080;11.118;2023-01-27T07:42:05;99159.34;;;0.30;70.19
49759;BME280;35654;46.080;11.118;2023-01-27T07:44:32;99162.72;;;0.25;70.96
49759;BME280;35654;46.080;11.118;2023-01-27T07:46:58;99163.69;;;0.19;71.27
49759;BME280;35654;46.080;11.118;2023-01-27T07:49:25;99175.94;;;0.15;71.86
49759;BME280;35654;46.080;11.118;2023-01-27T07:51:52;99166.84;;;0.16;72.25
49759;BME280;35654;46.080;11.118;2023-01-27T07:54:19;99167.97;;;0.20;72.48
49759;BME280;35654;46.080;11.118;2023-01-27T07:56:46;99169.25;;;0.06;72.52
49759;BME280;35654;46.080;11.118;2023-01-27T07:59:13;99166.38;;;0.19;72.33
49759;BME280;35654;46.080;11.118;2023-01-27T08:01:40;99163.69;;;0.19;72.53
49759;BME280;35654;46.080;11.118;2023-01-27T08:04:07;99161.31;;;0.11;71.90
49759;BME280;35654;46.080;11.118;2023-01-27T08:06:36;99159.91;;;0.20;71.76
49759;BME280;35654;46.080;11.118;2023-01-27T08:09:04;99157.31;;;0.25;71.39
49759;BME280;35654;46.080;11.118;2023-01-27T08:11:30;99149.41;;;0.30;71.19
49759;BME280;35654;46.080;11.118;2023-01-27T08:13:57;99161.53;;;0.56;70.34
49759;BME280;35654;46.080;11.118;2023-01-27T08:16:22;99155.09;;;0.80;69.60
49759;BME280;35654;46.080;11.118;2023-01-27T08:18:51;99148.13;;;0.96;68.70
49759;BME280;35654;46.080;11.118;2023-01-27T08:21:18;99149.63;;;1.03;68.45
49759;BME280;35654;46.080;11.118;2023-01-27T08:23:44;99152.56;;;1.02;67.32
49759;BME280;35654;46.080;11.118;2023-01-27T08:26:11;99156.06;;;1.14;67.72
49759;BME280;35654;46.080;11.118;2023-01-27T08:28:39;99154.97;;;1.27;66.89
49759;BME280;35654;46.080;11.118;2023-01-27T08:31:13;99156.59;;;1.28;65.74
49759;BME280;35654;46.080;11.118;2023-01-27T08:33:40;99166.66;;;1.32;66.24
49759;BME280;35654;46.080;11.118;2023-01-27T08:36:13;99160.41;;;1.43;65.51
49759;BME280;35654;46.080;11.118;2023-01-27T08:38:41;99154.78;;;1.45;64.87
49759;BME280;35654;46.080;11.118;2023-01-27T08:41:10;99157.22;;;1.74;64.56
49759;BME280;35654;46.080;11.118;2023-01-27T08:43:37;99161.66;;;1.81;63.23
49759;BME280;35654;46.080;11.118;2023-01-27T08:46:05;99157.06;;;1.81;63.16
49759;BME280;35654;46.080;11.118;2023-01-27T08:48:33;99152.16;;;1.95;62.24
49759;BME280;35654;46.080;11.118;2023-01-27T08:50:59;99154.81;;;2.06;61.85
49759;BME280;35654;46.080;11.118;2023-01-27T08:53:25;99158.63;;;2.27;60.57
49759;BME280;35654;46.080;11.118;2023-01-27T08:55:54;99150.56;;;2.49;60.25
49759;BME280;35654;46.080;11.118;2023-01-27T08:58:20;99159.38;;;2.39;59.82
49759;BME280;35654;46.080;11.118;2023-01-27T09:00:46;99150.91;;;2.52;59.98
49759;BME280;35654;46.080;11.118;2023-01-27T09:03:11;99167.63;;;2.49;58.09
49759;BME280;35654;46.080;11.118;2023-01-27T09:05:39;99154.69;;;2.51;57.38
49759;BME280;35654;46.080;11.118;2023-01-27T09:08:05;99153.03;;;2.50;56.41
49759;BME280;35654;46.080;11.118;2023-01-27T09:10:31;99150.19;;;2.57;57.03
49759;BME280;35654;46.080;11.118;2023-01-27T09:12:58;99155.38;;;2.08;59.06
49759;BME280;35654;46.080;11.118;2023-01-27T09:15:23;99152.66;;;1.92;61.32
49759;BME280;35654;46.080;11.118;2023-01-27T09:17:50;99154.59;;;1.80;61.70
49759;BME280;35654;46.080;11.118;2023-01-27T09:20:15;99157.38;;;1.85;61.81
49759;BME280;35654;46.080;11.118;2023-01-27T09:22:41;99155.84;;;2.22;60.88
49759;BME280;35654;46.080;11.118;2023-01-27T09:25:07;99158.28;;;2.23;61.20
49759;BME280;35654;46.080;11.118;2023-01-27T09:27:33;99161.72;;;2.35;60.54
49759;BME280;35654;46.080;11.118;2023-01-27T09:29:58;99159.09;;;2.41;59.24
49759;BME280;35654;46.080;11.118;2023-01-27T09:32:24;99155.81;;;2.55;59.10
49759;BME280;35654;46.080;11.118;2023-01-27T09:34:49;99151.69;;;2.69;58.44
49759;BME280;35654;46.080;11.118;2023-01-27T09:37:14;99160.38;;;2.71;58.67
49759;BME280;35654;46.080;11.118;2023-01-27T09:39:53;99155.94;;;2.82;57.32
49759;BME280;35654;46.080;11.118;2023-01-27T09:47:40;99151.97;;;3.11;54.17
49759;BME280;35654;46.080;11.118;2023-01-27T09:50:38;99159.03;;;3.12;54.45
49759;BME280;35654;46.080;11.118;2023-01-27T09:58:23;99160.13;;;3.38;53.74
49759;BME280;35654;46.080;11.118;2023-01-27T10:00:57;99154.91;;;3.53;53.29
49759;BME280;35654;46.080;11.118;2023-01-27T10:03:42;99150.63;;;3.84;51.65
49759;BME280;35654;46.080;11.118;2023-01-27T10:09:36;99148.19;;;3.82;51.70
49759;BME280;35654;46.080;11.118;2023-01-27T10:17:09;99143.44;;;4.73;50.03
49759;BME280;35654;46.080;11.118;2023-01-27T10:23:06;99147.63;;;4.91;48.94
49759;BME280;35654;46.080;11.118;2023-01-27T10:28:16;99136.63;;;5.22;47.96
49759;BME280;35654;46.080;11.118;2023-01-27T10:31:08;99133.16;;;5.47;47.20
49759;BME280;35654;46.080;11.118;2023-01-27T10:33:54;99124.88;;;6.14;46.44
49759;BME280;35654;46.080;11.118;2023-01-27T10:39:23;99113.44;;;11.37;36.39
49759;BME280;35654;46.080;11.118;2023-01-27T10:41:58;99111.41;;;13.85;31.19
49759;BME280;35654;46.080;11.118;2023-01-27T10:47:35;99105.78;;;16.13;27.66
49759;BME280;35654;46.080;11.118;2023-01-27T10:50:15;99102.72;;;15.65;26.96
49759;BME280;35654;46.080;11.118;2023-01-27T10:52:54;99093.38;;;15.57;26.88
49759;BME280;35654;46.080;11.118;2023-01-27T10:55:27;99093.63;;;15.64;27.44
49759;BME280;35654;46.080;11.118;2023-01-27T10:57:58;99102.53;;;14.22;29.20
49759;BME280;35654;46.080;11.118;2023-01-27T11:00:33;99103.53;;;14.35;29.46
49759;BME280;35654;46.080;11.118;2023-01-27T11:03:27;99084.53;;;15.64;27.67
49759;BME280;35654;46.080;11.118;2023-01-27T11:06:00;99087.97;;;15.61;27.55
49759;BME280;35654;46.080;11.118;2023-01-27T11:08:31;99080.63;;;16.27;26.77
49759;BME280;35654;46.080;11.118;2023-01-27T11:11:01;99075.00;;;17.13;25.29
49759;BME280;35654;46.080;11.118;2023-01-27T11:13:45;99086.22;;;18.05;24.24
49759;BME280;35654;46.080;11.118;2023-01-27T11:16:17;99069.09;;;19.02;23.01
49759;BME280;35654;46.080;11.118;2023-01-27T11:18:43;99071.84;;;15.92;26.07
49759;BME280;35654;46.080;11.118;2023-01-27T11:21:17;99070.84;;;15.97;25.73
49759;BME280;35654;46.080;11.118;2023-01-27T11:23:49;99067.38;;;15.29;26.62
49759;BME280;35654;46.080;11.118;2023-01-27T11:29:19;99053.91;;;15.78;26.52
49759;BME280;35654;46.080;11.118;2023-01-27T11:34:25;99052.28;;;18.95;23.31
49759;BME280;35654;46.080;11.118;2023-01-27T11:36:52;99044.75;;;17.81;24.13
49759;BME280;35654;46.080;11.118;2023-01-27T11:39:18;99045.56;;;16.07;27.10
49759;BME280;35654;46.080;11.118;2023-01-27T11:41:52;99046.59;;;16.35;26.41
49759;BME280;35654;46.080;11.118;2023-01-27T11:44:20;99034.75;;;17.04;25.38
49759;BME280;35654;46.080;11.118;2023-01-27T11:46:47;99037.97;;;16.69;26.04
49759;BME280;35654;46.080;11.118;2023-01-27T11:49:20;99034.13;;;15.55;27.53
49759;BME280;35654;46.080;11.118;2023-01-27T11:51:47;99024.31;;;15.37;28.21
49759;BME280;35654;46.080;11.118;2023-01-27T11:54:20;99025.38;;;15.44;27.68
49759;BME280;35654;46.080;11.118;2023-01-27T11:56:48;99020.66;;;15.95;27.30
49759;BME280;35654;46.080;11.118;2023-01-27T11:59:28;99015.22;;;16.64;25.98
49759;BME280;35654;46.080;11.118;2023-01-27T12:01:58;99010.66;;;17.04;25.92
49759;BME280;35654;46.080;11.118;2023-01-27T12:07:37;98994.81;;;19.11;23.57
49759;BME280;35654;46.080;11.118;2023-01-27T12:09:58;98998.84;;;17.95;25.00
49759;BME280;35654;46.080;11.118;2023-01-27T12:12:25;98993.28;;;17.68;25.88
49759;BME280;35654;46.080;11.118;2023-01-27T12:14:58;98983.84;;;16.80;26.12
49759;BME280;35654;46.080;11.118;2023-01-27T12:19:55;98984.72;;;15.62;28.24
49759;BME280;35654;46.080;11.118;2023-01-27T12:22:31;98975.88;;;14.69;29.66
49759;BME280;35654;46.080;11.118;2023-01-27T12:25:04;98976.91;;;13.83;31.08
49759;BME280;35654;46.080;11.118;2023-01-27T12:27:40;98974.00;;;13.20;31.58
49759;BME280;35654;46.080;11.118;2023-01-27T12:30:33;98968.19;;;12.03;33.65
49759;BME280;35654;46.080;11.118;2023-01-27T12:33:11;98969.66;;;11.43;35.10
49759;BME280;35654;46.080;11.118;2023-01-27T12:35:39;98971.84;;;10.42;36.81
49759;BME280;35654;46.080;11.118;2023-01-27T12:38:21;98969.81;;;10.20;37.54
49759;BME280;35654;46.080;11.118;2023-01-27T12:40:57;98960.31;;;11.22;36.26
49759;BME280;35654;46.080;11.118;2023-01-27T12:43:24;98957.44;;;12.15;34.20
49759;BME280;35654;46.080;11.118;2023-01-27T12:48:44;98946.00;;;13.26;32.49
49759;BME280;35654;46.080;11.118;2023-01-27T12:51:19;98944.88;;;14.72;30.45
49759;BME280;35654;46.080;11.118;2023-01-27T12:53:47;98931.56;;;17.27;27.19
49759;BME280;35654;46.080;11.118;2023-01-27T12:56:22;98927.81;;;16.96;26.95
49759;BME280;35654;46.080;11.118;2023-01-27T12:58:57;98923.78;;;17.85;25.71
49759;BME280;35654;46.080;11.118;2023-01-27T13:01:35;98919.22;;;18.51;25.25
49759;BME280;35654;46.080;11.118;2023-01-27T13:04:18;98917.56;;;17.76;25.48
49759;BME280;35654;46.080;11.118;2023-01-27T13:07:14;98921.16;;;17.36;25.79
49759;BME280;35654;46.080;11.118;2023-01-27T13:09:56;98914.75;;;18.47;25.15
49759;BME280;35654;46.080;11.118;2023-01-27T13:12:28;98918.91;;;18.53;24.46
49759;BME280;35654;46.080;11.118;2023-01-27T13:15:07;98915.69;;;16.52;26.67
49759;BME280;35654;46.080;11.118;2023-01-27T13:17:41;98917.50;;;15.79;27.59
49759;BME280;35654;46.080;11.118;2023-01-27T13:20:41;98906.16;;;15.39;28.34
49759;BME280;35654;46.080;11.118;2023-01-27T13:23:30;98901.91;;;15.41;28.27
49759;BME280;35654;46.080;11.118;2023-01-27T13:26:15;98903.13;;;15.52;28.67
49759;BME280;35654;46.080;11.118;2023-01-27T13:32:02;98901.78;;;16.72;26.80
49759;BME280;35654;46.080;11.118;2023-01-27T13:34:48;98902.59;;;17.77;25.93
49759;BME280;35654;46.080;11.118;2023-01-27T13:37:30;98902.19;;;20.34;22.80
49759;BME280;35654;46.080;11.118;2023-01-27T13:40:28;98904.69;;;20.20;22.57
49759;BME280;35654;46.080;11.118;2023-01-27T13:45:45;98907.53;;;16.43;27.14
49759;BME280;35654;46.080;11.118;2023-01-27T13:48:31;98910.81;;;15.26;28.80
49759;BME280;35654;46.080;11.118;2023-01-27T13:51:16;98916.25;;;15.14;28.90
49759;BME280;35654;46.080;11.118;2023-01-27T13:53:44;98915.75;;;14.33;30.48
49759;BME280;35654;46.080;11.118;2023-01-27T14:11:23;98906.66;;;16.63;27.29
49759;BME280;35654;46.080;11.118;2023-01-27T14:25:52;98910.84;;;13.92;30.54
49759;BME280;35654;46.080;11.118;2023-01-27T14:31:44;98921.56;;;11.37;34.95
49759;BME280;35654;46.080;11.118;2023-01-27T14:37:02;98920.75;;;10.37;36.95
49759;BME280;35654;46.080;11.118;2023-01-27T14:42:31;98930.09;;;9.26;39.82
49759;BME280;35654;46.080;11.118;2023-01-27T14:45:22;98921.09;;;9.25;40.15
49759;BME280;35654;46.080;11.118;2023-01-27T14:51:05;98936.97;;;8.67;42.14
49759;BME280;35654;46.080;11.118;2023-01-27T14:59:22;98933.06;;;8.26;42.79
49759;BME280;35654;46.080;11.118;2023-01-27T15:02:11;98936.91;;;7.96;42.62
49759;BME280;35654;46.080;11.118;2023-01-27T15:08:00;98934.34;;;7.52;42.93